createdAt,value
2022-10-02T00:02:36.132Z,90.02
2022-10-02T00:05:29.140Z,90.14
2022-10-02T00:08:09.979Z,90.25
2022-10-02T00:10:46.339Z,90.92
2022-10-02T00:13:23.551Z,91.95
2022-10-02T00:15:54.036Z,92.67
2022-10-02T00:18:31.080Z,93.43
2022-10-02T00:21:36.492Z,93.01
2022-10-02T00:24:09.014Z,91.99
2022-10-02T00:26:48.187Z,91.49
2022-10-02T00:29:47.821Z,91.53
2022-10-02T00:32:29.210Z,91.72
2022-10-02T00:35:15.552Z,92.01
2022-10-02T00:37:49.398Z,92.25
2022-10-02T00:40:53.840Z,92.63
2022-10-02T00:43:42.061Z,93.05
2022-10-02T00:46:15.764Z,93.19
2022-10-02T00:48:59.100Z,93.43
2022-10-02T00:51:48.351Z,93.60
2022-10-02T00:54:37.659Z,93.61
2022-10-02T00:57:05.423Z,93.92
2022-10-02T00:59:57.938Z,93.74
2022-10-02T01:02:31.917Z,93.61
2022-10-02T01:05:02.686Z,93.50
2022-10-02T01:07:30.923Z,93.40
2022-10-02T01:09:59.436Z,93.32
2022-10-02T01:12:27.864Z,93.14
2022-10-02T01:14:55.693Z,93.08
2022-10-02T01:17:34.800Z,92.90
2022-10-02T01:20:07.167Z,92.67
2022-10-02T01:22:58.875Z,92.31
2022-10-02T01:25:26.957Z,92.21
2022-10-02T01:27:54.911Z,91.97
2022-10-02T01:30:23.017Z,91.81
2022-10-02T01:32:56.340Z,91.53
2022-10-02T01:35:28.455Z,91.34
2022-10-02T01:37:56.420Z,91.18
2022-10-02T01:40:29.326Z,91.06
2022-10-02T01:43:07.144Z,91.03
2022-10-02T01:45:58.568Z,90.91
2022-10-02T01:48:48.103Z,90.90
2022-10-02T01:51:27.221Z,90.96
2022-10-02T01:54:10.256Z,90.95
2022-10-02T01:56:48.592Z,90.99
2022-10-02T01:59:22.413Z,90.97
2022-10-02T02:02:09.139Z,90.92
2022-10-02T02:04:58.103Z,90.88
2022-10-02T02:07:45.148Z,90.93
2022-10-02T02:10:17.272Z,90.80
2022-10-02T02:13:04.043Z,90.86
2022-10-02T02:15:46.739Z,90.77
2022-10-02T02:18:21.228Z,90.67
2022-10-02T02:20:53.358Z,90.48
2022-10-02T02:23:33.956Z,89.92
2022-10-02T02:26:09.822Z,89.62
2022-10-02T02:28:40.572Z,89.38
2022-10-02T02:31:11.842Z,89.21
2022-10-02T02:33:46.912Z,89.14
2022-10-02T02:36:21.640Z,89.04
2022-10-02T02:38:54.987Z,89.06
2022-10-02T02:41:28.549Z,89.11
2022-10-02T02:44:04.483Z,89.10
2022-10-02T02:47:03.935Z,89.00
2022-10-02T02:49:38.480Z,88.60
2022-10-02T02:52:12.084Z,88.24
2022-10-02T02:54:48.402Z,88.19
2022-10-02T02:57:21.025Z,87.77
2022-10-02T02:59:51.119Z,87.54
2022-10-02T03:02:19.072Z,87.48
2022-10-02T03:04:47.075Z,87.34
2022-10-02T03:07:17.659Z,87.16
2022-10-02T03:10:09.650Z,87.20
2022-10-02T03:12:43.327Z,87.25
2022-10-02T03:15:27.373Z,86.96
2022-10-02T03:18:22.824Z,86.69
2022-10-02T03:21:13.332Z,86.71
2022-10-02T03:23:55.149Z,86.81
2022-10-02T03:26:47.616Z,87.01
2022-10-02T03:29:28.140Z,87.11
2022-10-02T03:31:57.391Z,87.31
2022-10-02T03:34:26.516Z,87.41
2022-10-02T03:36:55.267Z,87.31
2022-10-02T03:39:25.962Z,87.44
2022-10-02T03:41:54.698Z,87.42
2022-10-02T03:44:22.612Z,87.37
2022-10-02T03:46:50.786Z,87.33
2022-10-02T03:49:18.799Z,87.05
2022-10-02T03:51:46.844Z,86.37
2022-10-02T03:54:20.538Z,86.32
2022-10-02T03:56:54.466Z,86.02
2022-10-02T04:00:02.092Z,85.88
2022-10-02T04:03:02.256Z,85.98
2022-10-02T04:05:50.028Z,85.83
2022-10-02T04:08:28.611Z,85.82
2022-10-02T04:11:13.839Z,85.87
2022-10-02T04:13:48.692Z,85.94
2022-10-02T04:16:35.821Z,85.97
2022-10-02T04:19:25.428Z,86.08
2022-10-02T04:21:56.362Z,85.83
2022-10-02T04:24:42.935Z,85.93
2022-10-02T04:27:42.329Z,85.74
2022-10-02T04:30:14.441Z,85.86
2022-10-02T04:32:42.480Z,85.79
2022-10-02T04:35:31.522Z,85.63
2022-10-02T04:38:21.175Z,85.37
2022-10-02T04:41:13.827Z,85.18
2022-10-02T04:44:18.963Z,84.90
2022-10-02T04:47:30.204Z,84.71
2022-10-02T04:50:17.194Z,84.64
2022-10-02T04:53:28.199Z,84.53
2022-10-02T04:55:56.002Z,84.45
2022-10-02T04:58:46.973Z,84.18
2022-10-02T05:01:28.478Z,84.11
2022-10-02T05:04:28.334Z,84.38
2022-10-02T05:06:59.191Z,84.39
2022-10-02T05:09:37.923Z,84.38
2022-10-02T05:12:31.894Z,84.27
2022-10-02T05:15:17.997Z,84.35
2022-10-02T05:17:55.027Z,84.21
2022-10-02T05:20:50.800Z,84.33
2022-10-02T05:23:37.000Z,84.36
2022-10-02T05:26:41.656Z,84.44
2022-10-02T05:29:14.216Z,84.61
2022-10-02T05:31:56.026Z,84.76
2022-10-02T05:34:45.482Z,84.68
2022-10-02T05:37:13.407Z,84.67
2022-10-02T05:40:13.391Z,84.64
2022-10-02T05:43:05.979Z,84.58
2022-10-02T05:45:43.657Z,84.57
2022-10-02T05:48:20.915Z,84.63
2022-10-02T05:50:54.287Z,84.49
2022-10-02T05:53:39.511Z,84.51
2022-10-02T05:56:22.855Z,84.45
2022-10-02T05:58:59.032Z,84.16
2022-10-02T06:01:32.522Z,83.98
2022-10-02T06:04:18.276Z,83.87
2022-10-02T06:06:51.655Z,83.61
2022-10-02T06:09:34.189Z,83.33
2022-10-02T06:12:13.446Z,83.17
2022-10-02T06:14:46.170Z,83.14
2022-10-02T06:17:27.641Z,82.71
2022-10-02T06:20:23.616Z,82.43
2022-10-02T06:22:59.353Z,82.02
2022-10-02T06:25:30.245Z,81.88
2022-10-02T06:28:19.985Z,81.58
2022-10-02T06:30:52.870Z,81.31
2022-10-02T06:33:26.413Z,81.16
2022-10-02T06:36:13.792Z,81.09
2022-10-02T06:39:09.161Z,80.48
2022-10-02T06:42:05.025Z,80.06
2022-10-02T06:44:40.079Z,79.47
2022-10-02T06:47:50.798Z,78.78
2022-10-02T06:50:40.947Z,77.90
2022-10-02T06:53:43.325Z,77.59
2022-10-02T06:56:23.004Z,77.65
2022-10-02T06:58:55.405Z,77.71
2022-10-02T07:01:37.278Z,77.72
2022-10-02T07:04:26.228Z,77.42
2022-10-02T07:07:29.913Z,77.47
2022-10-02T07:10:29.978Z,77.62
2022-10-02T07:13:32.680Z,77.33
2022-10-02T07:16:06.840Z,76.96
2022-10-02T07:18:56.343Z,76.70
2022-10-02T07:22:25.923Z,76.43
2022-10-02T07:25:03.843Z,76.59
2022-10-02T07:27:51.306Z,76.88
2022-10-02T07:30:19.506Z,76.65
2022-10-02T07:32:55.621Z,76.15
2022-10-02T07:35:29.268Z,75.52
2022-10-02T07:38:43.588Z,75.39
2022-10-02T07:41:48.965Z,74.39
2022-10-02T07:44:34.174Z,74.20
2022-10-02T07:47:43.904Z,73.12
2022-10-02T07:50:42.695Z,72.63
2022-10-02T07:53:45.241Z,72.10
2022-10-02T07:56:20.260Z,70.97
2022-10-02T07:58:57.627Z,71.05
2022-10-02T08:01:30.935Z,71.47
2022-10-02T08:04:10.805Z,71.92
2022-10-02T08:06:39.823Z,71.18
2022-10-02T08:09:15.574Z,71.38
2022-10-02T08:11:53.823Z,71.84
2022-10-02T08:14:42.198Z,72.81
2022-10-02T08:17:39.745Z,73.22
2022-10-02T08:20:30.208Z,73.27
2022-10-02T08:23:13.649Z,73.51
2022-10-02T08:26:25.231Z,74.07
2022-10-02T08:29:15.377Z,75.00
2022-10-02T08:31:43.307Z,75.88
2022-10-02T08:34:18.697Z,76.61
2022-10-02T08:36:53.185Z,77.12
2022-10-02T08:39:36.303Z,77.50
2022-10-02T08:42:41.616Z,78.03
2022-10-02T08:45:41.907Z,78.30
2022-10-02T08:48:28.592Z,78.42
2022-10-02T08:51:20.868Z,78.77
2022-10-02T08:54:12.188Z,78.92
2022-10-02T08:56:58.619Z,79.00
2022-10-02T08:59:38.328Z,79.14
2022-10-02T09:02:27.686Z,79.31
2022-10-02T09:05:33.412Z,79.51
2022-10-02T09:08:13.099Z,79.04
2022-10-02T09:11:05.789Z,78.61
2022-10-02T09:14:06.072Z,79.36
2022-10-02T09:16:52.406Z,79.11
2022-10-02T09:19:41.478Z,78.80
2022-10-02T09:22:18.509Z,78.65
2022-10-02T09:25:14.150Z,78.62
2022-10-02T09:28:03.935Z,78.44
2022-10-02T09:30:50.073Z,78.21
2022-10-02T09:33:42.234Z,77.74
2022-10-02T09:36:10.115Z,77.30
2022-10-02T09:39:11.939Z,77.31
2022-10-02T09:42:06.468Z,76.94
2022-10-02T09:45:24.243Z,76.99
2022-10-02T09:48:41.019Z,77.30
2022-10-02T09:51:30.307Z,77.00
2022-10-02T09:54:32.023Z,76.49
2022-10-02T09:57:19.842Z,75.36
2022-10-02T10:00:11.525Z,74.42
2022-10-02T10:03:15.643Z,73.21
2022-10-02T10:06:32.027Z,71.68
2022-10-02T10:09:18.638Z,70.95
2022-10-02T10:12:34.482Z,69.31
2022-10-02T10:15:19.541Z,68.85
2022-10-02T10:18:09.988Z,69.17
2022-10-02T10:21:18.943Z,68.11
2022-10-02T10:24:17.506Z,67.28
2022-10-02T10:27:08.154Z,66.75
2022-10-02T10:29:54.395Z,66.79
2022-10-02T10:32:41.191Z,66.10
2022-10-02T10:35:11.818Z,64.94
2022-10-02T10:38:24.546Z,64.50
2022-10-02T10:41:26.088Z,63.14
2022-10-02T10:44:16.688Z,63.58
2022-10-02T10:46:56.396Z,64.44
2022-10-02T10:50:02.395Z,64.42
2022-10-02T10:52:39.231Z,64.49
2022-10-02T10:55:22.223Z,64.80
2022-10-02T10:58:26.494Z,64.48
2022-10-02T11:01:01.233Z,64.64
2022-10-02T11:03:55.276Z,64.79
2022-10-02T11:06:35.483Z,65.17
2022-10-02T11:09:06.344Z,64.89
2022-10-02T11:12:10.099Z,64.28
2022-10-02T11:15:06.145Z,64.82
2022-10-02T11:17:43.154Z,64.74
2022-10-02T11:20:43.002Z,64.78
2022-10-02T11:23:35.710Z,63.82
2022-10-02T11:26:28.403Z,63.51
2022-10-02T11:29:17.989Z,62.50
2022-10-02T11:32:15.226Z,61.17
2022-10-02T11:34:48.756Z,61.51
2022-10-02T11:37:37.895Z,61.05
2022-10-02T11:40:22.903Z,60.32
2022-10-02T11:43:22.007Z,59.81
2022-10-02T11:46:01.208Z,59.53
2022-10-02T11:48:48.315Z,59.55
2022-10-02T11:51:19.111Z,59.57
2022-10-02T11:54:24.442Z,58.86
2022-10-02T11:57:16.115Z,59.10
2022-10-02T12:00:08.637Z,59.61
2022-10-02T12:03:08.717Z,58.77
2022-10-02T12:05:55.425Z,57.76
2022-10-02T12:08:49.279Z,57.80
2022-10-02T12:11:36.086Z,58.36
2022-10-02T12:14:25.011Z,57.79
2022-10-02T12:17:01.256Z,58.26
2022-10-02T12:20:11.008Z,58.37
2022-10-02T12:23:19.326Z,58.50
2022-10-02T12:26:20.207Z,58.61
2022-10-02T12:29:12.825Z,58.64
2022-10-02T12:32:18.191Z,58.99
2022-10-02T12:35:04.862Z,59.64
2022-10-02T12:37:48.938Z,59.88
2022-10-02T12:40:45.242Z,60.51
2022-10-02T12:43:34.566Z,60.22
2022-10-02T12:46:13.822Z,60.32
2022-10-02T12:49:05.112Z,60.03
2022-10-02T12:51:48.642Z,59.67
2022-10-02T12:54:38.631Z,60.02
2022-10-02T12:57:38.875Z,60.69
2022-10-02T13:00:18.349Z,61.09
2022-10-02T13:03:15.880Z,61.08
2022-10-02T13:05:51.396Z,60.34
2022-10-02T13:08:24.874Z,60.39
2022-10-02T13:11:04.926Z,60.48
2022-10-02T13:13:47.690Z,60.16
2022-10-02T13:16:41.927Z,59.50
2022-10-02T13:19:34.126Z,59.24
2022-10-02T13:22:16.384Z,59.49
2022-10-02T13:25:12.000Z,58.72
2022-10-02T13:27:46.109Z,58.06
2022-10-02T13:30:18.261Z,57.87
2022-10-02T13:33:06.048Z,57.71
2022-10-02T13:35:55.977Z,57.89
2022-10-02T13:38:54.143Z,58.53
2022-10-02T13:41:40.884Z,58.85
2022-10-02T13:44:34.116Z,57.86
2022-10-02T13:47:12.500Z,57.30
2022-10-02T13:49:54.121Z,57.48
2022-10-02T13:52:31.113Z,56.83
2022-10-02T13:55:14.029Z,56.95
2022-10-02T13:57:47.712Z,57.50
2022-10-02T14:00:23.820Z,57.26
2022-10-02T14:03:22.708Z,57.66
2022-10-02T14:06:07.375Z,57.82
2022-10-02T14:08:38.878Z,57.85
2022-10-02T14:11:45.097Z,57.92
2022-10-02T14:14:38.391Z,58.10
2022-10-02T14:17:25.084Z,57.75
2022-10-02T14:20:15.843Z,57.33
2022-10-02T14:23:03.063Z,56.93
2022-10-02T14:25:30.893Z,56.96
2022-10-02T14:28:07.762Z,57.39
2022-10-02T14:30:44.148Z,57.07
2022-10-02T14:33:24.354Z,56.40
2022-10-02T14:36:08.109Z,55.52
2022-10-02T14:38:54.709Z,55.24
2022-10-02T14:41:34.976Z,54.50
2022-10-02T14:44:23.355Z,53.72
2022-10-02T14:47:00.770Z,53.86
2022-10-02T14:49:39.489Z,53.87
2022-10-02T14:52:16.479Z,53.64
2022-10-02T14:55:02.715Z,52.41
2022-10-02T14:57:51.043Z,52.01
2022-10-02T15:00:23.164Z,51.96
2022-10-02T15:03:17.535Z,52.32
2022-10-02T15:05:54.858Z,52.68
2022-10-02T15:08:37.272Z,53.33
2022-10-02T15:11:18.437Z,54.28
2022-10-02T15:13:51.382Z,54.69
2022-10-02T15:16:51.410Z,55.30
2022-10-02T15:19:27.331Z,55.58
2022-10-02T15:22:02.133Z,55.93
2022-10-02T15:24:34.031Z,56.39
2022-10-02T15:27:29.436Z,56.59
2022-10-02T15:30:04.706Z,56.98
2022-10-02T15:32:59.237Z,57.21
2022-10-02T15:36:08.894Z,57.40
2022-10-02T15:39:18.528Z,57.90
2022-10-02T15:42:06.156Z,58.36
2022-10-02T15:44:55.336Z,58.81
2022-10-02T15:47:39.000Z,59.09
2022-10-02T15:50:54.897Z,59.44
2022-10-02T15:53:37.015Z,60.12
2022-10-02T15:56:04.966Z,60.35
2022-10-02T15:58:35.599Z,60.71
2022-10-02T16:01:31.011Z,61.00
2022-10-02T16:04:23.865Z,61.44
2022-10-02T16:07:10.459Z,61.81
2022-10-02T16:09:41.411Z,62.05
2022-10-02T16:12:50.484Z,62.24
2022-10-02T16:15:31.680Z,62.51
2022-10-02T16:18:05.598Z,62.74
2022-10-02T16:20:42.620Z,63.02
2022-10-02T16:23:34.926Z,63.41
2022-10-02T16:26:35.685Z,63.82
2022-10-02T16:29:26.483Z,64.26
2022-10-02T16:32:20.687Z,64.42
2022-10-02T16:35:33.153Z,64.63
2022-10-02T16:38:11.480Z,64.94
2022-10-02T16:41:12.738Z,65.20
2022-10-02T16:43:48.807Z,65.33
2022-10-02T16:46:24.728Z,65.52
2022-10-02T16:49:19.761Z,65.82
2022-10-02T16:51:53.780Z,66.01
2022-10-02T16:55:06.521Z,66.30
2022-10-02T16:57:43.400Z,66.31
2022-10-02T17:00:22.901Z,66.42
2022-10-02T17:03:05.934Z,66.48
2022-10-02T17:05:55.446Z,66.66
2022-10-02T17:08:36.506Z,66.70
2022-10-02T17:11:36.560Z,66.89
2022-10-02T17:14:18.282Z,67.11
2022-10-02T17:16:55.898Z,67.08
2022-10-02T17:19:46.027Z,67.19
2022-10-02T17:22:26.987Z,67.45
2022-10-02T17:25:27.273Z,67.52
2022-10-02T17:28:04.948Z,67.66
2022-10-02T17:31:08.853Z,67.77
2022-10-02T17:33:56.047Z,67.85
2022-10-02T17:36:36.841Z,68.06
2022-10-02T17:39:23.274Z,68.18
2022-10-02T17:42:20.343Z,68.28
2022-10-02T17:45:14.269Z,68.38
2022-10-02T17:48:07.604Z,68.49
2022-10-02T17:50:45.534Z,68.72
2022-10-02T17:54:00.821Z,68.84
2022-10-02T17:56:43.154Z,68.93
2022-10-02T17:59:27.448Z,69.03
2022-10-02T18:02:09.294Z,69.23
2022-10-02T18:05:18.192Z,69.38
2022-10-02T18:08:06.774Z,69.52
2022-10-02T18:11:02.796Z,69.61
2022-10-02T18:13:54.966Z,69.74
2022-10-02T18:16:37.912Z,69.82
2022-10-02T18:19:28.031Z,69.86
2022-10-02T18:22:17.930Z,69.78
2022-10-02T18:25:05.128Z,69.83
2022-10-02T18:28:05.154Z,69.76
2022-10-02T18:30:55.051Z,69.82
2022-10-02T18:33:30.201Z,69.98
2022-10-02T18:36:04.303Z,69.94
2022-10-02T18:38:43.975Z,70.02
2022-10-02T18:41:27.382Z,70.17
2022-10-02T18:44:07.588Z,70.14
2022-10-02T18:46:49.559Z,70.31
2022-10-02T18:49:24.191Z,70.38
2022-10-02T18:52:07.528Z,70.48
2022-10-02T18:54:46.113Z,70.74
2022-10-02T18:57:14.008Z,70.63
2022-10-02T18:59:55.360Z,70.66
2022-10-02T19:02:50.355Z,70.71
2022-10-02T19:05:26.398Z,71.03
2022-10-02T19:08:03.592Z,70.82
2022-10-02T19:10:31.587Z,70.78
2022-10-02T19:13:17.602Z,70.79
2022-10-02T19:15:48.541Z,71.05
2022-10-02T19:18:27.006Z,71.10
2022-10-02T19:21:13.684Z,71.05
2022-10-02T19:24:02.551Z,71.08
2022-10-02T19:26:41.027Z,71.09
2022-10-02T19:29:24.512Z,71.27
2022-10-02T19:31:53.960Z,71.40
2022-10-02T19:34:27.908Z,71.34
2022-10-02T19:37:00.313Z,71.28
2022-10-02T19:39:30.783Z,71.46
2022-10-02T19:42:08.222Z,71.55
2022-10-02T19:44:45.082Z,71.49
2022-10-02T19:47:28.067Z,71.41
2022-10-02T19:49:59.556Z,71.47
2022-10-02T19:52:53.146Z,71.50
2022-10-02T19:55:24.351Z,71.50
2022-10-02T19:57:58.185Z,71.50
2022-10-02T20:00:28.354Z,71.60
2022-10-02T20:03:00.125Z,71.53
2022-10-02T20:05:32.090Z,71.48
2022-10-02T20:08:07.430Z,71.40
2022-10-02T20:10:40.090Z,71.34
2022-10-02T20:13:36.351Z,71.27
2022-10-02T20:16:40.739Z,71.34
2022-10-02T20:19:31.585Z,71.24
2022-10-02T20:22:06.248Z,71.25
2022-10-02T20:25:17.143Z,71.17
2022-10-02T20:27:54.168Z,71.16
2022-10-02T20:30:24.837Z,71.17
2022-10-02T20:32:56.961Z,70.99
2022-10-02T20:35:35.356Z,71.03
2022-10-02T20:38:13.810Z,70.91
2022-10-02T20:40:46.693Z,70.95
2022-10-02T20:43:19.691Z,70.87
2022-10-02T20:46:02.700Z,70.65
2022-10-02T20:49:08.954Z,70.60
2022-10-02T20:52:36.197Z,70.44
2022-10-02T20:55:26.654Z,70.44
2022-10-02T20:58:26.856Z,70.32
2022-10-02T21:01:14.927Z,70.01
2022-10-02T21:04:34.488Z,69.86
2022-10-02T21:07:08.465Z,69.92
2022-10-02T21:10:03.383Z,70.04
2022-10-02T21:13:11.618Z,70.01
2022-10-02T21:15:39.595Z,70.00
2022-10-02T21:19:00.726Z,70.03
2022-10-02T21:21:53.699Z,70.13
2022-10-02T21:24:27.839Z,70.13
2022-10-02T21:27:20.062Z,70.28
2022-10-02T21:30:14.391Z,70.54
2022-10-02T21:33:04.123Z,70.58
2022-10-02T21:35:52.235Z,70.55
2022-10-02T21:38:39.114Z,70.58
2022-10-02T21:41:48.638Z,70.48
2022-10-02T21:44:41.288Z,70.52
2022-10-02T21:47:53.620Z,70.67
2022-10-02T21:50:36.920Z,70.74
2022-10-02T21:53:34.208Z,70.97
2022-10-02T21:56:39.411Z,71.16
2022-10-02T21:59:46.292Z,71.47
2022-10-02T22:02:50.661Z,71.58
2022-10-02T22:05:34.807Z,71.44
2022-10-02T22:08:12.532Z,71.55
2022-10-02T22:11:01.485Z,71.56
2022-10-02T22:13:37.143Z,71.62
2022-10-02T22:16:47.556Z,71.56
2022-10-02T22:19:33.713Z,71.65
2022-10-02T22:22:10.023Z,71.64
2022-10-02T22:25:11.626Z,71.68
2022-10-02T22:28:04.797Z,71.63
2022-10-02T22:30:45.378Z,71.66
2022-10-02T22:33:37.787Z,71.83
2022-10-02T22:36:32.704Z,72.06
2022-10-02T22:39:08.198Z,72.15
2022-10-02T22:42:03.202Z,72.10
2022-10-02T22:44:58.091Z,72.19
2022-10-02T22:47:46.895Z,72.20
2022-10-02T22:50:39.892Z,72.40
2022-10-02T22:53:35.863Z,72.62
2022-10-02T22:56:23.803Z,72.74
2022-10-02T22:59:15.625Z,72.81
2022-10-02T23:01:57.441Z,72.93
2022-10-02T23:04:44.187Z,73.02
2022-10-02T23:07:40.760Z,73.34
2022-10-02T23:10:40.861Z,73.49
2022-10-02T23:13:21.620Z,73.69
2022-10-02T23:15:58.907Z,73.75
2022-10-02T23:18:39.768Z,73.82
2022-10-02T23:21:52.394Z,73.97
2022-10-02T23:24:23.744Z,74.17
2022-10-02T23:27:19.780Z,74.16
2022-10-02T23:30:08.188Z,74.15
2022-10-02T23:32:42.085Z,74.15
2022-10-02T23:35:25.420Z,74.09
2022-10-02T23:38:11.985Z,73.93
2022-10-02T23:41:38.798Z,73.83
2022-10-02T23:44:17.355Z,73.87
2022-10-02T23:47:11.564Z,74.02
2022-10-02T23:49:45.581Z,74.02
2022-10-02T23:52:19.511Z,73.90
2022-10-02T23:55:14.300Z,74.06
2022-10-02T23:58:11.293Z,73.97
